LEAL/ALC METAR and TAF weather

Enter ICAO airport designator
Station Type Date Time Source
LEAL METAR 2021/09/25 11:30 UTC NOAA

LEAL 251130Z 11004KT 020V170 9999 FEW022 28/20 Q1017 NOSIG


Station Type Date Time Source
LEAL Decoded METAR 2021/09/25 11:30 UTC NOAA

Alicante / El Altet, Spain (LEAL) 38-17N 000-33W 31M
Sep 25, 2021 - 07:30 AM EDT / 2021.09.25 1130 UTC
Wind: from the ESE (110 degrees) at 5 MPH (4 KT) (direction variable):0
Visibility: greater than 7 mile(s):0
Sky conditions: mostly clear
Temperature: 82 F (28 C)
Dew Point: 68 F (20 C)
Relative Humidity: 61%
Pressure (altimeter): 30.03 in. Hg (1017 hPa)
ob: LEAL 251130Z 11004KT 020V170 9999 FEW022 28/20 Q1017 NOSIG
cycle: 11

Station Type Date Time Source
LEAL TAF 2021/09/25 12:29 UTC NOAA

TAF LEAL 251100Z 2512/2612 VRB03KT 9999 FEW030 TX29/2512Z TN20/2606Z
BECMG 2512/2515 18010KT
BECMG 2521/2523 VRB03KT PROB30
TEMPO 2603/2606 3000 BCFG BKN010

Example: see airport list